AirNav   Air Wisconsin pilot careers
 
 419 users online  

E67 Kearny Airport
Kearny, Arizona, USA

GOING TO KEARNY?


FAA INFORMATION EFFECTIVE 16 AUGUST 2018

Location

FAA Identifier: E67
Lat/Long: 33-02-49.9000N / 110-54-32.6000W
33-02.831667N / 110-54.543333W
33.0471944 / -110.9090556
(estimated)
Elevation: 1833 ft. / 559 m (estimated)
Variation: 12E (1985)
From city: 1 mile S of KEARNY, AZ
Time zone: UTC -7 (year round; does not observe DST)
Zip code: 85237

Airport Operations

Airport use: Open to the public
Activation date: 05/1962
Control tower: no
ARTCC: ALBUQUERQUE CENTER
FSS: PRESCOTT FLIGHT SERVICE STATION
NOTAMs facility: PRC (NOTAM-D service available)
Attendance: MON-FRI 0900-1700
EXCEPT HOLIDAYS
Wind indicator: yes
Segmented circle: no

Airport Communications

CTAF/UNICOM: 122.95

Airport Services

Fuel available: 100LL
100LL AVBL FOR EMERG ONLY.
Parking: tiedowns
Airframe service: MAJOR
Powerplant service: MAJOR

Runway Information

Runway 8/26

Dimensions: 3400 x 60 ft. / 1036 x 18 m
Surface: concrete, in good condition
Weight bearing capacity: 
Single wheel: 12.5
RUNWAY 8  RUNWAY 26
Latitude: 33-02.851667N33-02.813000N
Longitude: 110-54.876000W110-54.211667W
Traffic pattern: leftleft
Displaced threshold: 195 ft.200 ft.
Markings: basic, in good conditionbasic, in good condition
Obstructions: 14 ft. tree, 240 ft. from runway, 35 ft. right of centerline, 2:1 slope to clear
+6 FT. BRUSH 100-200 FT. FROM THRESHOLD, 60-125 FT. RIGHT OF CENTERLINE.
20 ft. tree, 215 ft. from runway
RY 26 10-20 FT BRUSH & TREES 0- 200 FT FM EOR, 45-125 FT LEFT OF CNTRLN.

Airport Ownership and Management from official FAA records

Ownership: Publicly-owned
Owner: TOWN OF KEARNY
912-C, TILBURY DRIVE
KEARNY, AZ 85137
Phone 520-363-5547
TOWN FAX NUMBER 520-363-7527.
Manager: ANNA FLORES
912-C, TILBURY DRIVE P.O. BOX 639
KEARNY, AZ 85137
Phone 520-363-5547
TOWN MANAGER.

Airport Operational Statistics

Aircraft based on the field: 4
Single engine airplanes: 3
Ultralights: 1
    
Aircraft operations: avg 23/week *
92% transient general aviation
4% local general aviation
4% military
* for 12-month period ending 22 April 2017

Additional Remarks

FOR NOISE ABATEMENT AVOID SCHOOLS AND HOMES.
EMERGENCY FUEL ONLY.
MEDICAL HELICOPTER BASE 1 NM NORTHWEST.
FOR AIRPORT CONDITIONS & INFORMATION CALL FBO - LITTLE FLYERS - ROGER STERN 520-363-5175.
BIRDS, WILDFLIFE, MILITARY OPS INVOF OF ARPT.
EXPECT TURBULENCE ON RY 26 APCH WITH WIND FROM N AND ON DEP RWY 26.
CALM WIND USE RWY 8, RAPIDLY RISING TERRAIN ALL QUADRANTS EXCEPT SE QUADRANT.
NO LIGHTING ON AIRPORT, NIGHT OPERATIONS NOT RECOMMENDED.
FENCE 270 FT L/R OFF RY 26 END
FENCE 240 FT L/R OFF RY 8 END
DITCH BOTH SIDES RWY 8 END, 60' L/R OF CENTERLINE WITH 6 FT DROPS.

Instrument Procedures

There are no published instrument procedures at E67.

Some nearby airports with instrument procedures:

P13 - San Carlos Apache Airport (22 nm NE)
P08 - Coolidge Municipal Airport (27 nm W)
KIWA - Phoenix-Mesa Gateway Airport (41 nm NW)
KAVQ - Marana Regional Airport (41 nm S)
KCGZ - Casa Grande Municipal Airport (44 nm W)
 
Loc | Ops | Rwys | IFR | FBO | Links
Com | Nav | Svcs | Stats | Notes


 
Area around E67 (Kearny Airport)
 
Road maps at: MapQuest Bing Google
 
Aerial photo
WARNING: Photo may not be current or correct
Aerial photo of E67 (Kearny Airport)
Photo taken 18-Nov-2011
looking south.

Do you have a better or more recent aerial photo of Kearny Airport that you would like to share? If so, please send us your photo.

 
Sectional chart

 
Airport distance calculator
Flying to Kearny Airport? Find the distance to fly.

From to E67

Sunrise and sunset
Times for 18-Aug-2018
 Local
(UTC-7)
 Zulu
(UTC)
Morning civil twilight05:2412:24
Sunrise05:5012:50
Sunset19:0502:05
Evening civil twilight19:3102:31

Current date and time
Zulu (UTC)  18-Aug-2018 08:51:36
Local (UTC-7)  18-Aug-2018 01:51:36
 
METAR
KP08 
27nm W 
180835Z AUTO 00000KT 10SM CLR 31/19 A3000 RMK AO2
KIWA 
40nm W 
180835Z AUTO 27004KT 10SM CLR 31/20 A2997 RMK AO2 T03140196
KAVQ 
41nm S 
180835Z AUTO 21004KT 10SM CLR 29/17 A3003 RMK AO2 T02900169
KCGZ 
44nm W 
180756Z AUTO 29006KT 10SM CLR 33/18 A2999 RMK AO2 SLP135 T03280183 PNO $
KCHD 
47nm W 
180347Z 31006KT 10SM SCT120 SCT250 36/18 A2995 RMK LAST
KFFZ 
48nm NW 
180250Z 30010KT 30SM FEW120 SCT200 36/19 A2995
TAF
KIWA 
40nm W 
180520Z 1806/1906 12004KT P6SM FEW080 SCT250 FM181800 26008KT P6SM SCT080 BKN250 AMD LTD TO CLD VIS AND WIND TIL 181300
NOTAMs
Click for the latest NOTAMs
NOTAMs are issued by the DoD/FAA and will open in a separate window not controlled by AirNav.

 

 
 

Would you like to see your business listed on this page?

 If your business provides an interesting product or service to pilots, flight crews, aircraft, or users of the Kearny Airport, you should consider listing it here.  To start the listing process, click on the button below
 
Add a business
 

Other Pages about Kearny Airport

www.townofkearny.com/departments.html#airport
 
Update a link
 
Copyright © AirNav, LLC. All rights reserved. Privacy Policy  Contact